Time;durP1;ratioP1;P1;durP2;ratioP2;P2;SDS_P1;SDS_P2;PMS_P1;PMS_P2;Temp;Humidity;BMP_temperature;BMP_pressure;BME280_temperature;BME280_humidity;BME280_pressure;Samples;Min_cycle;Max_cycle;Signal;HPM_P1;HPM_P2
2023/08/27 00:01:11;;;;;;;9.25;7.65;;;;;;;;;;5079402;28;20044;-73
2023/08/27 00:03:37;;;;;;;10.70;7.60;;;;;;;;;;5072677;28;20048;-73
2023/08/27 00:06:03;;;;;;;9.40;7.50;;;;;;;;;;5062668;28;20376;-73
2023/08/27 00:08:29;;;;;;;8.20;7.32;;;;;;;;;;5084409;28;20131;-73
2023/08/27 00:10:59;;;;;;;9.30;7.72;;;;;;;;;;5061045;28;20510;-73
2023/08/27 00:13:25;;;;;;;8.60;7.70;;;;;;;;;;5076902;28;20056;-73
2023/08/27 00:15:52;;;;;;;8.88;7.57;;;;;;;;;;5082061;28;20040;-73
2023/08/27 00:18:18;;;;;;;9.23;7.78;;;;;;;;;;5082365;28;20057;-73
2023/08/27 00:20:47;;;;;;;10.07;8.27;;;;;;;;;;5091043;28;20483;-73
2023/08/27 00:23:13;;;;;;;9.30;8.25;;;;;;;;;;5086334;28;20097;-73
2023/08/27 00:25:39;;;;;;;9.80;8.25;;;;;;;;;;5082023;28;20044;-73
2023/08/27 00:28:06;;;;;;;8.65;7.85;;;;;;;;;;5089389;28;20044;-73
2023/08/27 00:30:32;;;;;;;9.77;8.07;;;;;;;;;;5084086;28;20036;-74
2023/08/27 00:32:58;;;;;;;9.38;8.30;;;;;;;;;;5088298;28;20490;-73
2023/08/27 00:35:24;;;;;;;12.35;8.70;;;;;;;;;;5081711;28;20036;-73
2023/08/27 00:37:50;;;;;;;10.90;8.60;;;;;;;;;;5085846;28;20105;-73
2023/08/27 00:40:16;;;;;;;11.52;8.77;;;;;;;;;;5086559;28;20066;-73
2023/08/27 00:42:42;;;;;;;10.57;8.77;;;;;;;;;;5083867;28;20441;-73
2023/08/27 00:45:09;;;;;;;9.30;8.30;;;;;;;;;;5085476;28;20037;-73
2023/08/27 00:47:39;;;;;;;9.68;8.40;;;;;;;;;;5063448;28;20083;-73
2023/08/27 00:50:07;;;;;;;9.25;8.25;;;;;;;;;;5088881;28;20567;-73
2023/08/27 00:52:33;;;;;;;10.00;8.65;;;;;;;;;;5065138;28;20392;-74
2023/08/27 00:55:01;;;;;;;9.18;8.18;;;;;;;;;;5078679;28;20047;-73
2023/08/27 00:57:27;;;;;;;9.25;7.90;;;;;;;;;;5075829;28;20118;-74
2023/08/27 00:59:58;;;;;;;10.10;7.93;;;;;;;;;;5084887;28;20058;-73
2023/08/27 01:02:24;;;;;;;10.25;8.38;;;;;;;;;;5094819;28;20494;-74
2023/08/27 01:04:50;;;;;;;10.20;8.25;;;;;;;;;;5067474;28;20049;-73
2023/08/27 01:07:23;;;;;;;10.10;8.93;;;;;;;;;;5083098;28;20146;-73
2023/08/27 01:09:54;;;;;;;9.45;7.95;;;;;;;;;;5082440;28;21334;-73
2023/08/27 01:12:24;;;;;;;9.57;8.57;;;;;;;;;;5081771;28;20763;-73
2023/08/27 01:14:52;;;;;;;13.55;8.68;;;;;;;;;;5064451;28;20040;-74
2023/08/27 01:17:19;;;;;;;10.43;9.05;;;;;;;;;;5067354;28;20052;-74
2023/08/27 01:19:45;;;;;;;9.60;8.63;;;;;;;;;;5082546;28;20066;-74
2023/08/27 01:22:11;;;;;;;10.77;9.50;;;;;;;;;;5080763;28;20035;-73
2023/08/27 01:24:37;;;;;;;11.20;9.48;;;;;;;;;;5086540;28;20043;-74
2023/08/27 01:27:06;;;;;;;10.07;9.07;;;;;;;;;;5083663;28;20039;-73
2023/08/27 01:29:51;;;;;;;9.68;8.77;;;;;;;;;;5088264;28;20482;-73
2023/08/27 01:32:17;;;;;;;11.27;9.52;;;;;;;;;;5067260;28;20048;-73
2023/08/27 01:34:44;;;;;;;10.65;9.52;;;;;;;;;;5079239;28;20494;-73
2023/08/27 01:37:13;;;;;;;10.55;9.25;;;;;;;;;;5088291;28;20040;-74
2023/08/27 01:39:39;;;;;;;10.35;8.98;;;;;;;;;;5087617;28;20390;-74
2023/08/27 01:42:05;;;;;;;10.05;9.02;;;;;;;;;;5088650;28;20036;-74
2023/08/27 01:44:31;;;;;;;10.82;9.20;;;;;;;;;;5087433;28;20407;-73
2023/08/27 01:46:58;;;;;;;10.38;9.30;;;;;;;;;;5073008;28;20105;-73
2023/08/27 01:49:24;;;;;;;9.90;8.63;;;;;;;;;;5091603;28;20063;-74
2023/08/27 01:51:50;;;;;;;12.23;9.32;;;;;;;;;;5065238;28;20036;-73
2023/08/27 01:54:16;;;;;;;11.75;9.00;;;;;;;;;;5092867;28;20446;-73
2023/08/27 01:56:45;;;;;;;10.25;9.15;;;;;;;;;;5088586;28;20126;-73
2023/08/27 01:59:11;;;;;;;11.27;9.40;;;;;;;;;;5088154;28;20166;-73
2023/08/27 02:01:40;;;;;;;11.93;9.57;;;;;;;;;;5084956;28;20040;-73
2023/08/27 02:04:06;;;;;;;11.27;9.52;;;;;;;;;;5094371;28;20052;-74
2023/08/27 02:06:32;;;;;;;10.10;9.02;;;;;;;;;;5091574;28;20105;-73
2023/08/27 02:08:58;;;;;;;11.70;9.98;;;;;;;;;;5087369;28;20051;-73
2023/08/27 02:11:24;;;;;;;10.73;9.35;;;;;;;;;;5073886;28;20402;-74
2023/08/27 02:13:50;;;;;;;11.05;9.60;;;;;;;;;;5086128;28;20043;-74
2023/08/27 02:16:16;;;;;;;11.18;9.98;;;;;;;;;;5067628;28;20059;-73
2023/08/27 02:18:42;;;;;;;11.60;9.95;;;;;;;;;;5059999;28;20039;-73
2023/08/27 02:21:08;;;;;;;11.25;9.93;;;;;;;;;;5087046;28;20050;-73
2023/08/27 02:23:35;;;;;;;11.13;9.93;;;;;;;;;;5083564;28;20394;-74
2023/08/27 02:26:01;;;;;;;12.32;10.57;;;;;;;;;;5081281;28;20051;-74
2023/08/27 02:28:27;;;;;;;11.55;10.43;;;;;;;;;;5086617;28;20051;-74
2023/08/27 02:30:56;;;;;;;11.75;10.18;;;;;;;;;;5081453;28;20557;-74
2023/08/27 02:33:25;;;;;;;12.90;11.57;;;;;;;;;;5068547;28;20047;-74
2023/08/27 02:35:51;;;;;;;11.90;10.70;;;;;;;;;;5086761;28;20044;-73
2023/08/27 02:38:18;;;;;;;12.50;10.55;;;;;;;;;;5063028;28;20043;-73
2023/08/27 02:40:44;;;;;;;11.52;10.32;;;;;;;;;;5092968;28;20620;-73
2023/08/27 02:43:10;;;;;;;11.98;10.73;;;;;;;;;;5082565;28;20529;-73
2023/08/27 02:45:37;;;;;;;12.60;11.30;;;;;;;;;;5085007;28;21924;-73
2023/08/27 02:48:03;;;;;;;13.50;11.23;;;;;;;;;;5078664;28;20044;-73
2023/08/27 02:50:29;;;;;;;12.30;10.90;;;;;;;;;;5082556;28;20499;-73
2023/08/27 02:52:55;;;;;;;13.43;10.57;;;;;;;;;;5077942;28;20040;-73
2023/08/27 02:55:21;;;;;;;12.57;11.38;;;;;;;;;;5085155;28;20071;-73
2023/08/27 02:57:47;;;;;;;12.27;10.93;;;;;;;;;;5070636;28;20097;-74
2023/08/27 03:00:13;;;;;;;12.00;10.73;;;;;;;;;;5065203;28;20520;-73
2023/08/27 03:02:39;;;;;;;15.15;11.60;;;;;;;;;;5091840;28;20083;-74
2023/08/27 03:05:06;;;;;;;14.05;11.43;;;;;;;;;;5083621;28;20109;-73
2023/08/27 03:07:32;;;;;;;14.02;12.20;;;;;;;;;;5074257;28;20071;-73
2023/08/27 03:09:58;;;;;;;13.52;12.02;;;;;;;;;;5085300;28;20055;-74
2023/08/27 03:12:24;;;;;;;14.80;13.07;;;;;;;;;;5070518;28;20482;-74
2023/08/27 03:14:50;;;;;;;14.68;12.80;;;;;;;;;;5072743;28;20044;-73
2023/08/27 03:17:16;;;;;;;16.63;13.27;;;;;;;;;;5080382;28;20093;-73
2023/08/27 03:19:45;;;;;;;16.55;13.32;;;;;;;;;;5083678;28;20048;-73
2023/08/27 03:22:11;;;;;;;13.90;12.45;;;;;;;;;;5080736;28;20135;-73
2023/08/27 03:24:38;;;;;;;16.45;13.70;;;;;;;;;;5083532;28;20063;-73
2023/08/27 03:27:04;;;;;;;15.77;13.48;;;;;;;;;;5081427;28;20048;-74
2023/08/27 03:29:30;;;;;;;16.60;13.23;;;;;;;;;;5076230;28;20048;-73
2023/08/27 03:31:56;;;;;;;16.65;14.05;;;;;;;;;;5084027;28;20039;-73
2023/08/27 03:34:23;;;;;;;17.55;13.10;;;;;;;;;;5083187;28;20079;-73
2023/08/27 03:36:49;;;;;;;16.38;13.23;;;;;;;;;;5069114;28;20041;-73
2023/08/27 03:39:15;;;;;;;14.10;12.63;;;;;;;;;;5066529;28;20380;-73
2023/08/27 03:41:41;;;;;;;15.48;13.32;;;;;;;;;;5083875;28;20183;-73
2023/08/27 03:44:07;;;;;;;14.48;12.73;;;;;;;;;;5090167;28;20079;-73
2023/08/27 03:46:33;;;;;;;14.73;13.20;;;;;;;;;;5082496;28;20072;-74
2023/08/27 03:49:00;;;;;;;15.55;12.88;;;;;;;;;;5065176;28;20040;-73
2023/08/27 03:51:28;;;;;;;13.43;11.93;;;;;;;;;;5066298;28;20052;-74
2023/08/27 03:53:55;;;;;;;19.85;13.00;;;;;;;;;;5082380;28;20460;-73
2023/08/27 03:56:21;;;;;;;13.90;11.85;;;;;;;;;;5087850;28;20078;-73
2023/08/27 03:58:47;;;;;;;15.05;12.13;;;;;;;;;;5068784;28;20107;-73
2023/08/27 04:01:13;;;;;;;13.50;10.20;;;;;;;;;;5090547;28;20125;-73
2023/08/27 04:03:39;;;;;;;13.73;10.30;;;;;;;;;;5071930;28;20044;-73
2023/08/27 04:06:06;;;;;;;14.45;10.18;;;;;;;;;;5070579;28;20532;-73
2023/08/27 04:08:32;;;;;;;14.68;10.43;;;;;;;;;;5066538;28;20102;-73
2023/08/27 04:10:58;;;;;;;17.67;10.95;;;;;;;;;;5064105;28;20510;-73
2023/08/27 04:13:24;;;;;;;12.55;10.60;;;;;;;;;;5064136;28;20063;-73
2023/08/27 04:16:00;;;;;;;17.60;10.55;;;;;;;;;;5068065;28;20048;-74
2023/08/27 04:18:27;;;;;;;11.48;8.32;;;;;;;;;;5070381;28;20041;-73
2023/08/27 04:20:53;;;;;;;8.70;6.15;;;;;;;;;;5059329;28;20169;-73
2023/08/27 04:23:19;;;;;;;7.32;4.10;;;;;;;;;;5070930;28;20511;-73
2023/08/27 04:25:45;;;;;;;2.65;2.30;;;;;;;;;;5063804;28;20047;-72
2023/08/27 04:28:11;;;;;;;4.07;2.25;;;;;;;;;;5061548;28;20131;-74
2023/08/27 04:30:38;;;;;;;4.57;2.38;;;;;;;;;;5064328;28;20127;-74
2023/08/27 04:33:08;;;;;;;4.57;2.47;;;;;;;;;;5064999;28;20093;-73
2023/08/27 04:35:34;;;;;;;4.10;2.75;;;;;;;;;;5063290;28;20432;-73
2023/08/27 04:38:00;;;;;;;4.30;2.35;;;;;;;;;;5065548;28;20117;-73
2023/08/27 04:40:26;;;;;;;2.47;1.83;;;;;;;;;;5062910;28;20482;-73
2023/08/27 04:42:52;;;;;;;2.22;1.70;;;;;;;;;;5063972;28;20927;-74
2023/08/27 04:45:18;;;;;;;4.60;1.80;;;;;;;;;;5066218;28;20041;-74
2023/08/27 04:47:44;;;;;;;2.85;1.80;;;;;;;;;;5066318;28;20050;-74
2023/08/27 04:50:10;;;;;;;1.88;1.75;;;;;;;;;;5065795;28;20434;-74
2023/08/27 04:52:37;;;;;;;3.70;1.70;;;;;;;;;;5067148;28;20127;-74
2023/08/27 04:55:06;;;;;;;2.53;1.77;;;;;;;;;;5073696;28;20048;-73
2023/08/27 04:57:32;;;;;;;2.60;1.70;;;;;;;;;;5061204;28;20051;-75
2023/08/27 04:59:58;;;;;;;2.53;1.60;;;;;;;;;;5063829;28;20502;-74
2023/08/27 05:02:24;;;;;;;2.25;1.60;;;;;;;;;;5070228;28;20119;-74
2023/08/27 05:04:51;;;;;;;1.60;1.50;;;;;;;;;;5071926;28;20262;-73
2023/08/27 05:07:17;;;;;;;3.05;1.80;;;;;;;;;;5072483;28;20502;-74
2023/08/27 05:09:44;;;;;;;2.28;1.60;;;;;;;;;;5083467;28;20052;-73
2023/08/27 05:12:10;;;;;;;1.90;1.80;;;;;;;;;;5086003;28;20054;-73
2023/08/27 05:14:36;;;;;;;2.30;2.00;;;;;;;;;;5079301;28;20048;-74
2023/08/27 05:17:02;;;;;;;4.50;3.05;;;;;;;;;;5069771;28;20056;-74
2023/08/27 05:19:28;;;;;;;3.40;3.10;;;;;;;;;;5090969;28;20131;-74
2023/08/27 05:21:54;;;;;;;5.35;3.40;;;;;;;;;;5083419;28;20127;-74
2023/08/27 05:24:20;;;;;;;2.55;2.35;;;;;;;;;;5084667;28;20221;-73
2023/08/27 05:26:46;;;;;;;3.42;2.67;;;;;;;;;;5089095;28;20494;-74
2023/08/27 05:29:12;;;;;;;6.18;2.85;;;;;;;;;;5083441;28;20170;-73
2023/08/27 05:31:38;;;;;;;5.82;3.03;;;;;;;;;;5084901;28;20152;-74
2023/08/27 05:34:04;;;;;;;4.78;2.55;;;;;;;;;;5095166;28;20048;-73
2023/08/27 05:36:30;;;;;;;7.43;3.83;;;;;;;;;;5081512;28;20048;-73
2023/08/27 05:38:58;;;;;;;6.82;4.30;;;;;;;;;;5087417;28;20123;-74
2023/08/27 05:41:24;;;;;;;5.55;3.85;;;;;;;;;;5087682;28;20048;-74
2023/08/27 05:43:50;;;;;;;4.32;3.92;;;;;;;;;;5090344;28;20123;-75
2023/08/27 05:46:16;;;;;;;6.03;3.85;;;;;;;;;;5095519;28;20130;-74
2023/08/27 05:48:42;;;;;;;5.65;3.58;;;;;;;;;;5092020;28;20052;-74
2023/08/27 05:51:08;;;;;;;6.82;3.60;;;;;;;;;;5092116;28;20501;-74
2023/08/27 05:53:34;;;;;;;6.28;4.35;;;;;;;;;;5084482;28;20514;-74
2023/08/27 05:56:00;;;;;;;8.73;5.15;;;;;;;;;;5091073;28;20051;-74
2023/08/27 05:58:27;;;;;;;7.82;5.47;;;;;;;;;;5091318;28;20044;-74
2023/08/27 06:00:59;;;;;;;7.65;5.75;;;;;;;;;;5104874;28;20040;-74
2023/08/27 06:03:25;;;;;;;8.80;5.87;;;;;;;;;;5102588;28;20047;-74
2023/08/27 06:05:51;;;;;;;7.22;5.85;;;;;;;;;;5091662;28;20455;-74
2023/08/27 06:08:17;;;;;;;8.88;6.05;;;;;;;;;;5074575;28;20056;-74
2023/08/27 06:10:43;;;;;;;8.70;5.95;;;;;;;;;;5088483;28;20368;-74
2023/08/27 06:13:09;;;;;;;7.22;6.05;;;;;;;;;;5092566;28;20450;-74
2023/08/27 06:15:38;;;;;;;8.13;5.75;;;;;;;;;;5093067;28;20044;-74
2023/08/27 06:18:05;;;;;;;9.10;6.20;;;;;;;;;;5075445;28;20048;-74
2023/08/27 06:20:31;;;;;;;10.13;6.07;;;;;;;;;;5072769;28;20076;-74
2023/08/27 06:22:58;;;;;;;12.30;6.30;;;;;;;;;;5083070;28;20495;-74
2023/08/27 06:25:24;;;;;;;9.85;6.78;;;;;;;;;;5084940;28;20051;-74
2023/08/27 06:27:53;;;;;;;10.90;6.93;;;;;;;;;;5069123;28;20044;-74
2023/08/27 06:30:20;;;;;;;9.68;6.78;;;;;;;;;;5083265;28;20047;-74
2023/08/27 06:32:48;;;;;;;7.25;5.63;;;;;;;;;;5085693;28;20040;-74
2023/08/27 06:35:15;;;;;;;9.10;5.25;;;;;;;;;;5073667;28;20048;-74
2023/08/27 06:37:44;;;;;;;7.13;3.92;;;;;;;;;;5071894;28;20429;-74
2023/08/27 06:40:10;;;;;;;4.53;3.15;;;;;;;;;;5089065;28;20131;-74
2023/08/27 06:42:36;;;;;;;4.75;3.45;;;;;;;;;;5090135;28;20386;-74
2023/08/27 06:45:04;;;;;;;6.30;3.72;;;;;;;;;;5088979;28;20119;-75
2023/08/27 06:47:30;;;;;;;6.10;3.40;;;;;;;;;;5087287;28;20466;-74
2023/08/27 06:49:56;;;;;;;4.55;2.80;;;;;;;;;;5081512;28;20307;-74
2023/08/27 06:52:22;;;;;;;4.00;2.60;;;;;;;;;;5070293;28;20105;-74
2023/08/27 06:54:49;;;;;;;2.50;2.30;;;;;;;;;;5085274;28;20398;-74
2023/08/27 06:57:15;;;;;;;2.20;2.00;;;;;;;;;;5084798;28;21005;-74
2023/08/27 06:59:41;;;;;;;3.55;2.20;;;;;;;;;;5068843;28;20399;-74
2023/08/27 07:02:07;;;;;;;6.03;2.00;;;;;;;;;;5090666;28;20040;-73
2023/08/27 07:04:33;;;;;;;3.00;1.92;;;;;;;;;;5085301;28;20131;-74
2023/08/27 07:06:59;;;;;;;2.10;1.90;;;;;;;;;;5085611;28;20036;-74
2023/08/27 07:09:25;;;;;;;2.30;2.10;;;;;;;;;;5069472;28;20060;-74
2023/08/27 07:11:52;;;;;;;2.38;1.90;;;;;;;;;;5067471;28;20510;-74
2023/08/27 07:14:18;;;;;;;2.63;1.83;;;;;;;;;;5095355;28;20039;-74
2023/08/27 07:16:44;;;;;;;2.38;1.80;;;;;;;;;;5062903;28;20052;-74
2023/08/27 07:19:10;;;;;;;1.98;1.75;;;;;;;;;;5089913;28;20101;-75
2023/08/27 07:21:36;;;;;;;1.60;1.50;;;;;;;;;;5085923;28;20123;-75
2023/08/27 07:24:02;;;;;;;1.77;1.50;;;;;;;;;;5089548;28;20051;-74
2023/08/27 07:26:29;;;;;;;1.50;1.40;;;;;;;;;;5090277;28;20058;-73
2023/08/27 07:28:56;;;;;;;1.52;1.40;;;;;;;;;;5076969;28;20056;-74
2023/08/27 07:31:22;;;;;;;1.50;1.35;;;;;;;;;;5068032;28;20051;-75
2023/08/27 07:33:48;;;;;;;1.60;1.45;;;;;;;;;;5063566;28;20051;-74
2023/08/27 07:36:14;;;;;;;1.40;1.30;;;;;;;;;;5075810;28;20044;-74
2023/08/27 07:38:41;;;;;;;1.58;1.38;;;;;;;;;;5060270;28;20047;-74
2023/08/27 07:41:07;;;;;;;1.73;1.50;;;;;;;;;;5087912;28;20054;-75
2023/08/27 07:43:33;;;;;;;3.67;1.52;;;;;;;;;;5083011;28;20044;-75
2023/08/27 07:45:59;;;;;;;2.03;1.50;;;;;;;;;;5084664;28;20032;-75
2023/08/27 07:48:27;;;;;;;2.00;1.50;;;;;;;;;;5089380;28;20050;-75
2023/08/27 07:50:53;;;;;;;1.95;1.50;;;;;;;;;;5088647;28;20522;-75
2023/08/27 07:53:19;;;;;;;1.45;1.35;;;;;;;;;;5090288;28;20148;-75
2023/08/27 07:55:45;;;;;;;1.40;1.30;;;;;;;;;;5092805;28;20047;-75
2023/08/27 07:58:11;;;;;;;1.52;1.38;;;;;;;;;;5071397;28;20131;-75
2023/08/27 08:00:37;;;;;;;1.70;1.60;;;;;;;;;;5081648;28;20076;-77
2023/08/27 08:03:03;;;;;;;2.60;1.77;;;;;;;;;;5072098;28;20462;-75
2023/08/27 08:05:29;;;;;;;1.60;1.50;;;;;;;;;;5066245;28;20052;-74
2023/08/27 08:07:58;;;;;;;1.88;1.48;;;;;;;;;;5082642;28;20032;-77
2023/08/27 08:10:24;;;;;;;1.73;1.40;;;;;;;;;;5073441;28;20389;-75
2023/08/27 08:12:50;;;;;;;1.30;1.30;;;;;;;;;;5067368;28;20036;-78
2023/08/27 08:15:16;;;;;;;1.88;1.35;;;;;;;;;;5072525;28;20052;-79
2023/08/27 08:17:43;;;;;;;1.58;1.38;;;;;;;;;;5058976;28;20040;-77
2023/08/27 08:20:10;;;;;;;1.98;1.50;;;;;;;;;;5071149;28;20131;-75
2023/08/27 08:22:36;;;;;;;1.50;1.40;;;;;;;;;;5083051;28;20048;-76
2023/08/27 08:25:02;;;;;;;1.27;1.27;;;;;;;;;;5089606;28;20052;-76
2023/08/27 08:27:28;;;;;;;1.38;1.27;;;;;;;;;;5083373;28;20068;-75
2023/08/27 08:29:54;;;;;;;2.90;1.40;;;;;;;;;;5069879;28;20060;-77
2023/08/27 08:32:20;;;;;;;1.10;1.10;;;;;;;;;;5062499;28;20062;-78
2023/08/27 08:34:46;;;;;;;1.75;1.65;;;;;;;;;;5072077;28;20040;-77
2023/08/27 08:37:12;;;;;;;2.65;1.48;;;;;;;;;;5084693;28;20044;-77
2023/08/27 08:39:40;;;;;;;1.40;1.30;;;;;;;;;;5060010;28;20051;-78
2023/08/27 08:42:06;;;;;;;1.48;1.38;;;;;;;;;;5087137;28;20119;-77
2023/08/27 08:44:50;;;;;;;1.40;1.30;;;;;;;;;;5084902;28;20468;-77
2023/08/27 08:47:18;;;;;;;1.50;1.40;;;;;;;;;;5078720;28;20044;-76
2023/08/27 08:49:48;;;;;;;10.45;6.85;;;;;;;;;;5089117;28;20124;-76
2023/08/27 08:52:20;;;;;;;1.63;1.50;;;;;;;;;;5091164;28;20390;-76
2023/08/27 08:54:48;;;;;;;1.85;1.48;;;;;;;;;;5085109;28;20757;-76
2023/08/27 08:57:15;;;;;;;1.52;1.42;;;;;;;;;;5087705;28;20056;-76
2023/08/27 08:59:42;;;;;;;2.70;1.60;;;;;;;;;;5084841;28;20043;-77
2023/08/27 09:02:11;;;;;;;2.72;1.70;;;;;;;;;;5084622;28;20457;-76
2023/08/27 09:04:37;;;;;;;2.75;1.88;;;;;;;;;;5062014;28;20382;-76
2023/08/27 09:07:05;;;;;;;1.85;1.75;;;;;;;;;;5089142;28;20036;-76
2023/08/27 09:09:32;;;;;;;2.97;1.70;;;;;;;;;;5064347;28;20055;-76
2023/08/27 09:12:00;;;;;;;4.45;1.90;;;;;;;;;;5083380;28;20086;-77
2023/08/27 09:14:26;;;;;;;2.63;1.80;;;;;;;;;;5083244;28;20425;-76
2023/08/27 09:16:52;;;;;;;2.15;1.58;;;;;;;;;;5063725;28;20046;-77
2023/08/27 09:19:18;;;;;;;3.38;1.60;;;;;;;;;;5070403;28;20050;-77
2023/08/27 09:21:44;;;;;;;1.70;1.60;;;;;;;;;;5085583;28;20067;-77
2023/08/27 09:24:11;;;;;;;2.22;1.50;;;;;;;;;;5088214;28;20040;-77
2023/08/27 09:26:38;;;;;;;2.28;1.65;;;;;;;;;;5071665;28;20083;-77
2023/08/27 09:29:06;;;;;;;3.20;1.70;;;;;;;;;;5065907;28;20632;-77
2023/08/27 09:31:36;;;;;;;2.95;1.55;;;;;;;;;;5086460;28;20143;-77
2023/08/27 09:34:03;;;;;;;2.13;1.90;;;;;;;;;;5085036;28;20122;-77
2023/08/27 09:36:29;;;;;;;1.80;1.70;;;;;;;;;;5086867;28;20051;-76
2023/08/27 09:38:55;;;;;;;2.83;1.80;;;;;;;;;;5086581;28;20134;-76
2023/08/27 09:41:21;;;;;;;1.65;1.55;;;;;;;;;;5090119;28;20067;-77
2023/08/27 09:43:52;;;;;;;1.70;1.60;;;;;;;;;;5086978;28;20426;-77
2023/08/27 09:46:18;;;;;;;3.33;1.75;;;;;;;;;;5066004;28;20052;-77
2023/08/27 09:48:44;;;;;;;1.70;1.60;;;;;;;;;;5089491;28;20040;-77
2023/08/27 09:51:11;;;;;;;1.60;1.50;;;;;;;;;;5069504;28;20159;-77
2023/08/27 09:53:37;;;;;;;2.67;1.77;;;;;;;;;;5090563;28;20051;-77
2023/08/27 09:56:06;;;;;;;2.25;1.55;;;;;;;;;;5092433;28;20147;-77
2023/08/27 09:58:38;;;;;;;7.50;4.85;;;;;;;;;;5068999;28;20087;-77
2023/08/27 10:01:04;;;;;;;2.28;1.80;;;;;;;;;;5093965;28;20172;-76
2023/08/27 10:03:30;;;;;;;1.77;1.67;;;;;;;;;;5076449;28;20073;-76
2023/08/27 10:05:56;;;;;;;2.42;1.60;;;;;;;;;;5082811;28;20044;-76
2023/08/27 10:08:22;;;;;;;2.70;1.70;;;;;;;;;;5088193;28;20499;-76
2023/08/27 10:10:48;;;;;;;8.80;2.20;;;;;;;;;;5091680;28;20040;-77
2023/08/27 10:13:15;;;;;;;5.68;2.00;;;;;;;;;;5092314;28;20089;-77
2023/08/27 10:15:41;;;;;;;11.00;1.77;;;;;;;;;;5089824;28;20535;-76
2023/08/27 10:18:13;;;;;;;5.38;1.83;;;;;;;;;;5093376;28;20040;-77
2023/08/27 10:20:40;;;;;;;6.28;2.05;;;;;;;;;;5091913;28;20083;-77
2023/08/27 10:23:06;;;;;;;4.25;1.73;;;;;;;;;;5091874;28;20052;-77
2023/08/27 10:25:33;;;;;;;11.73;2.35;;;;;;;;;;5088297;28;20040;-77
2023/08/27 10:27:59;;;;;;;18.27;8.40;;;;;;;;;;5087282;28;20044;-75
2023/08/27 10:30:26;;;;;;;13.48;4.80;;;;;;;;;;5069367;28;20055;-76
2023/08/27 10:32:52;;;;;;;9.13;2.22;;;;;;;;;;5063931;28;20407;-77
2023/08/27 10:35:18;;;;;;;7.03;2.72;;;;;;;;;;5089005;28;20165;-76
2023/08/27 10:37:48;;;;;;;5.85;1.48;;;;;;;;;;5089927;28;20047;-76
2023/08/27 10:40:15;;;;;;;3.15;1.50;;;;;;;;;;5089802;28;20044;-75
2023/08/27 10:42:41;;;;;;;1.35;1.20;;;;;;;;;;5089409;28;20050;-76
2023/08/27 10:45:15;;;;;;;1.65;1.40;;;;;;;;;;5086053;28;20079;-75
2023/08/27 10:47:42;;;;;;;2.80;1.08;;;;;;;;;;5087971;28;20053;-75
2023/08/27 10:50:09;;;;;;;2.85;1.30;;;;;;;;;;5087867;28;20105;-75
2023/08/27 10:52:51;;;;;;;1.40;1.30;;;;;;;;;;5070311;28;21067;-76
2023/08/27 10:55:23;;;;;;;3.20;1.60;;;;;;;;;;5094012;28;20082;-74
2023/08/27 10:57:49;;;;;;;3.92;1.25;;;;;;;;;;5085652;28;20418;-74
2023/08/27 11:00:15;;;;;;;2.58;1.30;;;;;;;;;;5084028;28;20048;-74
2023/08/27 11:02:57;;;;;;;1.20;1.10;;;;;;;;;;5084010;28;20028;-75
2023/08/27 11:05:28;;;;;;;1.92;1.10;;;;;;;;;;5082875;28;20487;-74
2023/08/27 11:07:57;;;;;;;3.88;1.23;;;;;;;;;;5090138;28;20433;-74
2023/08/27 11:10:30;;;;;;;1.27;1.20;;;;;;;;;;5079335;28;20106;-74
2023/08/27 11:12:56;;;;;;;1.83;1.10;;;;;;;;;;5079797;28;20132;-75
2023/08/27 11:15:32;;;;;;;1.85;1.23;;;;;;;;;;5081152;28;20040;-74
2023/08/27 11:17:58;;;;;;;1.70;1.20;;;;;;;;;;5089708;28;20040;-75
2023/08/27 11:20:25;;;;;;;1.65;1.48;;;;;;;;;;5087397;28;20051;-76
2023/08/27 11:22:58;;;;;;;1.20;1.20;;;;;;;;;;5092149;28;20390;-77
2023/08/27 11:25:26;;;;;;;1.48;1.40;;;;;;;;;;5091360;28;20040;-77
2023/08/27 11:27:53;;;;;;;2.10;1.10;;;;;;;;;;5085729;28;20050;-76
2023/08/27 11:30:19;;;;;;;1.25;1.15;;;;;;;;;;5087444;28;20057;-76
2023/08/27 11:32:45;;;;;;;1.30;1.20;;;;;;;;;;5081104;28;20039;-76
2023/08/27 11:35:14;;;;;;;1.35;1.15;;;;;;;;;;5088197;28;20127;-75
2023/08/27 11:37:40;;;;;;;4.10;1.40;;;;;;;;;;5089089;28;20036;-75
2023/08/27 11:40:14;;;;;;;1.50;1.40;;;;;;;;;;5088997;28;20092;-75
2023/08/27 11:42:48;;;;;;;3.92;1.42;;;;;;;;;;5090845;28;20394;-75
2023/08/27 11:45:14;;;;;;;2.47;1.38;;;;;;;;;;5070281;28;20048;-76
2023/08/27 11:47:42;;;;;;;3.92;1.40;;;;;;;;;;5072212;28;20055;-76
2023/08/27 11:50:08;;;;;;;5.20;1.60;;;;;;;;;;5088995;28;20040;-76
2023/08/27 11:52:38;;;;;;;4.40;1.50;;;;;;;;;;5088244;28;20093;-76
2023/08/27 11:55:04;;;;;;;3.83;1.63;;;;;;;;;;5091738;28;20056;-74
2023/08/27 11:57:30;;;;;;;3.63;1.60;;;;;;;;;;5070798;28;20044;-75
2023/08/27 11:59:56;;;;;;;6.22;1.70;;;;;;;;;;5088778;28;20452;-78
2023/08/27 12:02:22;;;;;;;3.08;1.40;;;;;;;;;;5066504;28;20047;-77
2023/08/27 12:04:49;;;;;;;4.95;1.83;;;;;;;;;;5087797;28;20162;-76
2023/08/27 12:07:27;;;;;;;2.88;1.50;;;;;;;;;;5087234;28;20073;-75
2023/08/27 12:09:53;;;;;;;4.75;1.70;;;;;;;;;;5087226;28;20464;-77
2023/08/27 12:12:19;;;;;;;4.13;1.58;;;;;;;;;;5071232;28;20044;-78
2023/08/27 12:14:47;;;;;;;3.22;1.67;;;;;;;;;;5092847;28;20164;-77
2023/08/27 12:17:14;;;;;;;2.55;1.45;;;;;;;;;;5086448;28;20550;-77
2023/08/27 12:19:43;;;;;;;3.42;1.63;;;;;;;;;;5086048;28;20047;-77
2023/08/27 12:22:14;;;;;;;2.47;1.65;;;;;;;;;;5087077;28;20040;-77
2023/08/27 12:24:44;;;;;;;3.25;2.60;;;;;;;;;;5089618;28;20040;-77
2023/08/27 12:27:17;;;;;;;11.38;6.47;;;;;;;;;;5087455;28;20047;-77
2023/08/27 12:29:46;;;;;;;3.00;1.50;;;;;;;;;;5065401;28;20055;-77
2023/08/27 12:32:14;;;;;;;2.03;1.80;;;;;;;;;;5069508;28;20036;-77
2023/08/27 12:34:41;;;;;;;3.05;1.60;;;;;;;;;;5089608;28;20040;-78
2023/08/27 12:37:07;;;;;;;2.42;1.88;;;;;;;;;;5086587;28;20118;-77
2023/08/27 12:39:36;;;;;;;1.95;1.70;;;;;;;;;;5070153;28;20467;-77
2023/08/27 12:42:02;;;;;;;3.60;1.85;;;;;;;;;;5071724;28;20441;-77
2023/08/27 12:44:28;;;;;;;4.20;1.92;;;;;;;;;;5087296;28;20050;-77
2023/08/27 12:46:54;;;;;;;1.50;1.40;;;;;;;;;;5067389;28;20405;-76
2023/08/27 12:49:20;;;;;;;2.35;1.70;;;;;;;;;;5087243;28;20055;-77
2023/08/27 12:51:47;;;;;;;1.65;1.52;;;;;;;;;;5085016;28;20051;-79
2023/08/27 12:54:13;;;;;;;1.63;1.38;;;;;;;;;;5091264;28;20090;-75
2023/08/27 12:56:39;;;;;;;2.88;1.55;;;;;;;;;;5090961;28;20048;-77
2023/08/27 12:59:05;;;;;;;5.05;1.80;;;;;;;;;;5088713;28;20044;-76
2023/08/27 13:01:31;;;;;;;1.60;1.50;;;;;;;;;;5085626;28;20380;-78
2023/08/27 13:03:59;;;;;;;2.17;1.60;;;;;;;;;;5088516;28;20040;-75
2023/08/27 13:06:26;;;;;;;3.95;1.70;;;;;;;;;;5091457;28;20109;-76
2023/08/27 13:08:52;;;;;;;3.70;1.55;;;;;;;;;;5073480;28;20064;-76
2023/08/27 13:11:18;;;;;;;2.70;1.70;;;;;;;;;;5090710;28;20121;-76
2023/08/27 13:13:44;;;;;;;3.00;1.80;;;;;;;;;;5071110;28;20540;-76
2023/08/27 13:16:10;;;;;;;5.10;1.90;;;;;;;;;;5071389;28;20063;-76
2023/08/27 13:18:36;;;;;;;3.85;1.73;;;;;;;;;;5082777;28;20036;-76
2023/08/27 13:21:03;;;;;;;6.75;2.03;;;;;;;;;;5077851;28;20131;-76
2023/08/27 13:23:29;;;;;;;3.35;1.73;;;;;;;;;;5071314;28;20548;-77
2023/08/27 13:25:55;;;;;;;3.30;1.50;;;;;;;;;;5091348;28;20040;-78
2023/08/27 13:28:21;;;;;;;8.07;4.88;;;;;;;;;;5071716;28;20471;-78
2023/08/27 13:30:47;;;;;;;3.10;1.70;;;;;;;;;;5069408;28;20383;-78
2023/08/27 13:33:13;;;;;;;3.53;1.70;;;;;;;;;;5094991;28;20119;-79
2023/08/27 13:35:39;;;;;;;3.92;1.80;;;;;;;;;;5091130;28;20050;-79
2023/08/27 13:38:05;;;;;;;4.25;1.77;;;;;;;;;;5087026;28;20046;-78
2023/08/27 13:40:31;;;;;;;5.30;1.80;;;;;;;;;;5091541;28;20047;-77
2023/08/27 13:42:57;;;;;;;5.50;1.90;;;;;;;;;;5072435;28;20097;-77
2023/08/27 13:45:23;;;;;;;4.90;1.70;;;;;;;;;;5091774;28;20056;-78
2023/08/27 13:47:50;;;;;;;2.45;1.73;;;;;;;;;;5075647;28;20093;-78
2023/08/27 13:50:17;;;;;;;4.05;1.70;;;;;;;;;;5072343;28;20319;-79
2023/08/27 13:52:46;;;;;;;3.35;1.73;;;;;;;;;;5091816;28;20546;-77
2023/08/27 13:55:12;;;;;;;3.78;1.58;;;;;;;;;;5087573;28;20102;-78
2023/08/27 13:57:38;;;;;;;3.38;1.73;;;;;;;;;;5090761;28;20040;-78
2023/08/27 14:00:05;;;;;;;4.63;1.60;;;;;;;;;;5088947;28;20122;-77
2023/08/27 14:02:31;;;;;;;6.18;1.67;;;;;;;;;;5089891;28;20169;-77
2023/08/27 14:04:57;;;;;;;5.88;1.60;;;;;;;;;;5092270;28;20413;-78
2023/08/27 14:07:23;;;;;;;4.88;1.70;;;;;;;;;;5092359;28;20036;-78
2023/08/27 14:09:49;;;;;;;4.22;1.65;;;;;;;;;;5092257;28;20051;-78
2023/08/27 14:12:17;;;;;;;3.47;1.80;;;;;;;;;;5093832;28;20135;-78
2023/08/27 14:14:43;;;;;;;1.88;1.50;;;;;;;;;;5071480;28;20406;-79
2023/08/27 14:17:11;;;;;;;3.42;1.73;;;;;;;;;;5074727;28;20051;-79
2023/08/27 14:19:37;;;;;;;1.65;1.52;;;;;;;;;;5087535;28;20410;-80
2023/08/27 14:22:03;;;;;;;1.80;1.60;;;;;;;;;;5073587;28;20052;-78
2023/08/27 14:24:29;;;;;;;1.90;1.42;;;;;;;;;;5086256;28;20058;-78
2023/08/27 14:26:55;;;;;;;2.70;1.65;;;;;;;;;;5086028;28;20043;-75
2023/08/27 14:29:21;;;;;;;2.20;1.60;;;;;;;;;;5091751;28;20048;-81
2023/08/27 14:31:51;;;;;;;3.58;1.80;;;;;;;;;;5082540;28;20044;-80
2023/08/27 14:34:17;;;;;;;2.88;2.63;;;;;;;;;;5070272;28;20183;-76
2023/08/27 14:36:43;;;;;;;5.85;4.35;;;;;;;;;;5092553;28;20044;-75